createdAt,value
2022-08-20T00:01:01.689Z,23.33
2022-08-20T00:06:07.154Z,22.30
2022-08-20T00:11:12.427Z,21.33
2022-08-20T00:16:17.248Z,22.85
2022-08-20T00:21:21.180Z,21.70
2022-08-20T00:26:26.045Z,20.35
2022-08-20T00:31:28.473Z,21.60
2022-08-20T00:36:33.015Z,20.58
2022-08-20T00:41:35.356Z,18.90
2022-08-20T00:46:38.477Z,19.80
2022-08-20T00:51:42.436Z,15.15
2022-08-20T00:56:49.418Z,17.50
2022-08-20T01:01:55.410Z,18.13
2022-08-20T01:06:58.554Z,19.42
2022-08-20T01:12:01.567Z,16.93
2022-08-20T01:17:08.106Z,19.17
2022-08-20T01:22:11.965Z,17.27
2022-08-20T01:27:14.842Z,17.35
2022-08-20T01:32:16.999Z,19.77
2022-08-20T01:37:19.144Z,17.37
2022-08-20T01:42:30.410Z,17.87
2022-08-20T01:47:36.402Z,16.80
2022-08-20T01:53:30.021Z,17.13
2022-08-20T01:58:35.291Z,16.38
2022-08-20T02:03:40.749Z,17.52
2022-08-20T02:08:46.277Z,17.27
2022-08-20T02:13:49.267Z,14.83
2022-08-20T02:28:58.035Z,15.88
2022-08-20T02:34:22.354Z,14.75
2022-08-20T02:39:25.163Z,16.15
2022-08-20T02:44:27.303Z,15.90
2022-08-20T02:49:29.620Z,17.43
2022-08-20T02:54:31.746Z,14.93
2022-08-20T02:59:33.897Z,16.37
2022-08-20T03:04:36.069Z,14.30
2022-08-20T03:09:38.874Z,15.00
2022-08-20T03:14:41.205Z,16.05
2022-08-20T03:19:43.331Z,15.80
2022-08-20T03:24:45.500Z,16.43
2022-08-20T03:29:47.623Z,14.63
2022-08-20T03:34:49.787Z,17.23
2022-08-20T03:39:52.007Z,15.60
2022-08-20T03:44:58.662Z,14.77
2022-08-20T03:50:04.690Z,14.90
2022-08-20T03:55:08.969Z,13.63
2022-08-20T04:00:12.354Z,12.95
2022-08-20T04:05:17.305Z,16.08
2022-08-20T04:10:19.992Z,13.97
2022-08-20T04:15:22.177Z,15.25
2022-08-20T04:20:25.408Z,13.65
2022-08-20T04:30:32.982Z,12.20
2022-08-20T04:40:37.129Z,13.05
2022-08-20T04:45:39.477Z,12.23
2022-08-20T04:50:44.128Z,12.40
2022-08-20T04:55:47.141Z,12.23
2022-08-20T05:00:52.768Z,12.80
2022-08-20T05:05:55.028Z,12.60
2022-08-20T05:11:06.597Z,12.40
2022-08-20T05:16:20.997Z,11.40
2022-08-20T05:26:25.077Z,12.65
2022-08-20T05:31:32.693Z,12.47
2022-08-20T05:36:36.330Z,12.00
2022-08-20T05:41:39.369Z,11.38
2022-08-20T05:51:44.649Z,12.32
2022-08-20T05:56:46.864Z,11.97
2022-08-20T06:01:49.010Z,11.70
2022-08-20T06:06:53.218Z,10.80
2022-08-20T06:11:55.433Z,11.02
2022-08-20T06:17:10.801Z,10.40
2022-08-20T06:22:21.329Z,9.98
2022-08-20T06:27:27.561Z,8.73
2022-08-20T06:32:32.679Z,8.13
2022-08-20T06:37:37.040Z,8.40
2022-08-20T06:42:39.631Z,7.57
2022-08-20T06:47:44.263Z,8.15
2022-08-20T06:52:52.781Z,7.38
2022-08-20T06:58:00.207Z,5.75
2022-08-20T07:03:03.746Z,4.00
2022-08-20T07:08:05.903Z,3.53
2022-08-20T07:13:08.817Z,3.55
2022-08-20T07:18:12.988Z,2.60
2022-08-20T07:23:15.454Z,3.10
2022-08-20T07:28:22.927Z,1.90
2022-08-20T07:33:28.315Z,1.70
2022-08-20T07:38:31.875Z,1.67
2022-08-20T07:43:34.665Z,1.55
2022-08-20T07:48:40.068Z,2.17
2022-08-20T07:53:42.458Z,1.70
2022-08-20T07:58:50.502Z,1.75
2022-08-20T08:03:53.206Z,1.23
2022-08-20T08:13:59.900Z,1.40
2022-08-20T08:19:06.219Z,1.30
2022-08-20T08:24:08.391Z,1.38
2022-08-20T08:29:10.874Z,1.30
2022-08-20T08:39:15.070Z,1.08
2022-08-20T08:44:29.298Z,1.35
2022-08-20T08:49:38.079Z,1.40
2022-08-20T08:54:47.227Z,1.42
2022-08-20T09:00:04.712Z,1.17
2022-08-20T09:05:16.304Z,1.40
2022-08-20T09:10:18.665Z,1.50
2022-08-20T09:15:25.480Z,1.10
2022-08-20T09:25:29.580Z,1.02
2022-08-20T09:30:31.805Z,0.80
2022-08-20T09:35:33.992Z,1.10
2022-08-20T09:40:36.199Z,1.20
2022-08-20T09:45:38.421Z,1.08
2022-08-20T09:50:45.860Z,1.27
2022-08-20T09:55:53.340Z,1.20
2022-08-20T10:00:55.550Z,1.30
2022-08-20T10:05:57.710Z,0.93
2022-08-20T10:10:59.939Z,1.10
2022-08-20T10:16:02.188Z,1.00
2022-08-20T10:21:10.068Z,1.00
2022-08-20T10:26:12.959Z,1.10
2022-08-20T10:31:15.234Z,0.95
2022-08-20T10:36:18.061Z,0.90
2022-08-20T10:41:20.358Z,1.00
2022-08-20T10:46:22.724Z,1.20
2022-08-20T10:51:32.197Z,1.10
2022-08-20T10:56:35.220Z,1.10
2022-08-20T11:01:37.538Z,0.93
2022-08-20T11:06:39.756Z,1.08
2022-08-20T11:11:41.917Z,1.00
2022-08-20T11:16:44.096Z,1.02
2022-08-20T11:21:46.306Z,1.10
2022-08-20T11:26:49.789Z,1.02
2022-08-20T11:31:52.003Z,0.95
2022-08-20T11:36:54.254Z,1.10
2022-08-20T11:41:56.478Z,0.90
2022-08-20T11:47:06.360Z,1.13
2022-08-20T11:52:08.506Z,0.90
2022-08-20T11:57:11.707Z,0.90
2022-08-20T12:02:13.905Z,1.17
2022-08-20T12:07:21.775Z,1.00
2022-08-20T12:12:24.069Z,0.90
2022-08-20T12:17:28.920Z,1.02
2022-08-20T12:22:31.154Z,1.00
2022-08-20T12:27:35.200Z,1.15
2022-08-20T12:32:37.424Z,1.02
2022-08-20T12:37:40.291Z,1.05
2022-08-20T12:42:42.462Z,1.02
2022-08-20T12:47:47.916Z,1.17
2022-08-20T12:52:50.251Z,1.20
2022-08-20T12:57:55.599Z,1.17
2022-08-20T13:02:59.725Z,0.80
2022-08-20T13:08:02.664Z,1.10
2022-08-20T13:13:04.821Z,1.20
2022-08-20T13:23:09.369Z,1.20
2022-08-20T13:28:11.553Z,1.30
2022-08-20T13:33:13.763Z,1.45
2022-08-20T13:38:15.925Z,1.10
2022-08-20T13:43:18.107Z,1.20
2022-08-20T13:48:20.313Z,1.30
2022-08-20T13:53:22.481Z,1.00
2022-08-20T13:58:25.197Z,1.40
2022-08-20T14:03:27.351Z,1.55
2022-08-20T14:08:30.299Z,1.50
2022-08-20T14:13:32.455Z,1.23
2022-08-20T14:18:34.639Z,1.58
2022-08-20T14:23:36.951Z,1.70
2022-08-20T14:28:39.223Z,3.85
2022-08-20T14:33:44.647Z,1.30
2022-08-20T14:38:47.053Z,1.25
2022-08-20T14:43:49.207Z,1.05
2022-08-20T14:48:51.832Z,1.25
2022-08-20T14:53:55.637Z,1.50
2022-08-20T14:58:57.804Z,1.52
2022-08-20T15:03:59.971Z,1.20
2022-08-20T15:09:02.475Z,1.67
2022-08-20T15:14:08.429Z,1.50
2022-08-20T15:19:11.001Z,1.55
2022-08-20T15:24:19.411Z,1.63
2022-08-20T15:29:24.682Z,1.40
2022-08-20T15:34:26.846Z,1.65
2022-08-20T15:39:29.009Z,1.50
2022-08-20T15:49:33.127Z,1.20
2022-08-20T15:59:43.626Z,1.60
2022-08-20T16:04:51.890Z,1.30
2022-08-20T16:10:20.532Z,1.27
2022-08-20T16:15:25.737Z,1.20
2022-08-20T16:20:38.629Z,1.25
2022-08-20T16:26:25.451Z,1.30
2022-08-20T16:32:05.348Z,1.17
2022-08-20T16:37:33.883Z,1.20
2022-08-20T16:42:42.151Z,1.30
2022-08-20T16:47:46.430Z,1.08
2022-08-20T16:52:49.225Z,1.20
2022-08-20T16:57:51.918Z,1.35
2022-08-20T17:02:54.006Z,1.30
2022-08-20T17:08:05.440Z,1.88
2022-08-20T17:13:13.292Z,1.40
2022-08-20T17:18:25.336Z,1.58
2022-08-20T17:23:27.939Z,1.60
2022-08-20T17:28:35.149Z,1.35
2022-08-20T17:33:39.632Z,1.23
2022-08-20T17:38:53.813Z,1.20
2022-08-20T17:44:20.332Z,1.60
2022-08-20T17:49:40.075Z,1.17
2022-08-20T17:54:45.309Z,1.50
2022-08-20T17:59:59.839Z,1.67
2022-08-20T18:05:14.297Z,1.17
2022-08-20T18:10:23.425Z,1.55
2022-08-20T18:15:29.658Z,1.63
2022-08-20T18:20:46.884Z,1.77
2022-08-20T18:25:54.552Z,1.48
2022-08-20T18:31:02.524Z,2.20
2022-08-20T18:36:12.987Z,2.47
2022-08-20T18:41:46.376Z,2.80
2022-08-20T18:46:55.140Z,2.20
2022-08-20T18:52:07.800Z,2.20
2022-08-20T18:57:41.316Z,2.37
2022-08-20T19:02:56.172Z,2.05
2022-08-20T19:18:32.941Z,2.00
2022-08-20T19:23:39.539Z,2.10
2022-08-20T19:28:45.089Z,2.00
2022-08-20T19:33:48.085Z,2.33
2022-08-20T19:39:01.479Z,2.40
2022-08-20T19:44:03.735Z,2.63
2022-08-20T19:49:24.074Z,2.77
2022-08-20T19:54:28.272Z,2.53
2022-08-20T19:59:30.512Z,3.22
2022-08-20T20:04:54.996Z,3.70
2022-08-20T20:09:59.974Z,3.00
2022-08-20T20:15:05.806Z,3.33
2022-08-20T20:20:23.451Z,3.80
2022-08-20T20:25:28.546Z,3.60
2022-08-20T20:30:33.492Z,3.92
2022-08-20T20:35:36.130Z,4.00
2022-08-20T20:40:49.610Z,3.50
2022-08-20T20:50:59.515Z,4.03
2022-08-20T20:56:02.179Z,3.83
2022-08-20T21:01:04.725Z,3.58
2022-08-20T21:06:07.309Z,3.90
2022-08-20T21:11:11.692Z,3.80
2022-08-20T21:16:13.875Z,4.45
2022-08-20T21:21:16.025Z,5.20
2022-08-20T21:26:18.457Z,5.53
2022-08-20T21:31:20.676Z,5.25
2022-08-20T21:36:22.856Z,4.57
2022-08-20T21:41:30.240Z,5.13
2022-08-20T21:46:32.581Z,5.35
2022-08-20T21:51:34.760Z,5.70
2022-08-20T21:56:37.959Z,6.28
2022-08-20T22:06:42.431Z,6.38
2022-08-20T22:11:44.750Z,7.40
2022-08-20T22:16:46.925Z,6.67
2022-08-20T22:21:49.447Z,6.95
2022-08-20T22:26:51.650Z,8.32
2022-08-20T22:31:54.218Z,7.40
2022-08-20T22:36:58.323Z,9.48
2022-08-20T22:42:00.515Z,10.07
2022-08-20T22:47:07.813Z,9.95
2022-08-20T22:52:11.783Z,10.98
2022-08-20T22:57:14.528Z,12.07
2022-08-20T23:02:18.359Z,11.60
2022-08-20T23:07:20.735Z,13.88
2022-08-20T23:12:23.027Z,14.47
2022-08-20T23:17:25.700Z,16.47
2022-08-20T23:22:27.964Z,14.20
2022-08-20T23:27:30.531Z,15.40
2022-08-20T23:32:32.735Z,12.63
2022-08-20T23:37:40.234Z,15.27
2022-08-20T23:42:42.549Z,18.10
2022-08-20T23:47:45.178Z,17.63
2022-08-20T23:52:47.935Z,16.45
2022-08-20T23:57:51.260Z,15.20
